sensor_id;sensor_type;location;lat;lon;timestamp;temperature;humidity
32293;DHT22;43233;48.608;8.838;2023-08-21T00:01:40;25.00;54.50
32293;DHT22;43233;48.608;8.838;2023-08-21T00:04:05;24.90;55.60
32293;DHT22;43233;48.608;8.838;2023-08-21T00:06:31;24.80;54.90
32293;DHT22;43233;48.608;8.838;2023-08-21T00:08:57;24.80;55.20
32293;DHT22;43233;48.608;8.838;2023-08-21T00:11:23;24.70;55.60
32293;DHT22;43233;48.608;8.838;2023-08-21T00:13:48;24.70;56.00
32293;DHT22;43233;48.608;8.838;2023-08-21T00:16:16;24.70;56.50
32293;DHT22;43233;48.608;8.838;2023-08-21T00:18:42;24.60;56.60
32293;DHT22;43233;48.608;8.838;2023-08-21T00:21:07;24.60;56.90
32293;DHT22;43233;48.608;8.838;2023-08-21T00:23:33;24.50;57.10
32293;DHT22;43233;48.608;8.838;2023-08-21T00:25:58;24.60;57.40
32293;DHT22;43233;48.608;8.838;2023-08-21T00:28:24;24.50;57.50
32293;DHT22;43233;48.608;8.838;2023-08-21T00:30:50;24.50;58.20
32293;DHT22;43233;48.608;8.838;2023-08-21T00:33:15;24.50;58.30
32293;DHT22;43233;48.608;8.838;2023-08-21T00:35:42;24.50;58.50
32293;DHT22;43233;48.608;8.838;2023-08-21T00:38:08;24.40;58.40
32293;DHT22;43233;48.608;8.838;2023-08-21T00:40:33;24.40;58.50
32293;DHT22;43233;48.608;8.838;2023-08-21T00:42:59;24.40;58.30
32293;DHT22;43233;48.608;8.838;2023-08-21T00:45:25;24.40;58.20
32293;DHT22;43233;48.608;8.838;2023-08-21T00:47:51;24.40;58.30
32293;DHT22;43233;48.608;8.838;2023-08-21T00:50:17;24.30;58.70
32293;DHT22;43233;48.608;8.838;2023-08-21T00:52:44;24.20;59.60
32293;DHT22;43233;48.608;8.838;2023-08-21T00:55:13;24.20;59.30
32293;DHT22;43233;48.608;8.838;2023-08-21T00:57:39;24.00;59.90
32293;DHT22;43233;48.608;8.838;2023-08-21T01:00:05;23.90;60.70
32293;DHT22;43233;48.608;8.838;2023-08-21T01:02:31;23.80;61.00
32293;DHT22;43233;48.608;8.838;2023-08-21T01:04:57;23.70;61.70
32293;DHT22;43233;48.608;8.838;2023-08-21T01:07:22;23.60;62.10
32293;DHT22;43233;48.608;8.838;2023-08-21T01:10:11;23.60;62.40
32293;DHT22;43233;48.608;8.838;2023-08-21T01:12:58;23.60;62.90
32293;DHT22;43233;48.608;8.838;2023-08-21T01:15:25;23.60;62.80
32293;DHT22;43233;48.608;8.838;2023-08-21T01:17:51;23.60;63.00
32293;DHT22;43233;48.608;8.838;2023-08-21T01:20:18;23.40;63.30
32293;DHT22;43233;48.608;8.838;2023-08-21T01:22:44;23.40;63.80
32293;DHT22;43233;48.608;8.838;2023-08-21T01:25:12;23.40;63.70
32293;DHT22;43233;48.608;8.838;2023-08-21T01:27:40;23.40;64.00
32293;DHT22;43233;48.608;8.838;2023-08-21T01:30:07;23.40;64.00
32293;DHT22;43233;48.608;8.838;2023-08-21T01:32:45;23.40;64.10
32293;DHT22;43233;48.608;8.838;2023-08-21T01:35:12;23.30;64.00
32293;DHT22;43233;48.608;8.838;2023-08-21T01:37:38;23.30;64.30
32293;DHT22;43233;48.608;8.838;2023-08-21T01:40:05;23.30;64.40
32293;DHT22;43233;48.608;8.838;2023-08-21T01:42:31;23.30;64.30
32293;DHT22;43233;48.608;8.838;2023-08-21T01:44:56;23.30;64.10
32293;DHT22;43233;48.608;8.838;2023-08-21T01:47:22;23.30;64.10
32293;DHT22;43233;48.608;8.838;2023-08-21T01:49:48;23.30;63.90
32293;DHT22;43233;48.608;8.838;2023-08-21T01:52:13;23.30;63.80
32293;DHT22;43233;48.608;8.838;2023-08-21T01:54:39;23.40;63.60
32293;DHT22;43233;48.608;8.838;2023-08-21T01:57:04;23.30;64.00
32293;DHT22;43233;48.608;8.838;2023-08-21T01:59:30;23.20;63.90
32293;DHT22;43233;48.608;8.838;2023-08-21T02:01:56;23.30;64.10
32293;DHT22;43233;48.608;8.838;2023-08-21T02:04:21;23.30;64.10
32293;DHT22;43233;48.608;8.838;2023-08-21T02:06:47;23.30;63.80
32293;DHT22;43233;48.608;8.838;2023-08-21T02:09:13;23.30;64.00
32293;DHT22;43233;48.608;8.838;2023-08-21T02:11:38;23.30;64.00
32293;DHT22;43233;48.608;8.838;2023-08-21T02:14:04;23.30;63.90
32293;DHT22;43233;48.608;8.838;2023-08-21T02:16:29;23.40;63.80
32293;DHT22;43233;48.608;8.838;2023-08-21T02:18:55;23.40;63.90
32293;DHT22;43233;48.608;8.838;2023-08-21T02:21:23;23.40;63.70
32293;DHT22;43233;48.608;8.838;2023-08-21T02:23:49;23.40;64.30
32293;DHT22;43233;48.608;8.838;2023-08-21T02:26:14;23.20;65.00
32293;DHT22;43233;48.608;8.838;2023-08-21T02:28:40;23.20;65.60
32293;DHT22;43233;48.608;8.838;2023-08-21T02:31:09;23.20;66.20
32293;DHT22;43233;48.608;8.838;2023-08-21T02:33:35;23.20;66.80
32293;DHT22;43233;48.608;8.838;2023-08-21T02:36:00;23.10;67.40
32293;DHT22;43233;48.608;8.838;2023-08-21T02:38:28;23.00;68.40
32293;DHT22;43233;48.608;8.838;2023-08-21T02:40:53;22.90;70.20
32293;DHT22;43233;48.608;8.838;2023-08-21T02:43:19;22.70;70.00
32293;DHT22;43233;48.608;8.838;2023-08-21T02:45:45;22.70;70.80
32293;DHT22;43233;48.608;8.838;2023-08-21T02:48:11;22.60;71.00
32293;DHT22;43233;48.608;8.838;2023-08-21T02:50:36;22.50;71.50
32293;DHT22;43233;48.608;8.838;2023-08-21T02:53:02;22.50;72.10
32293;DHT22;43233;48.608;8.838;2023-08-21T02:55:28;22.40;72.40
32293;DHT22;43233;48.608;8.838;2023-08-21T02:57:53;22.40;72.20
32293;DHT22;43233;48.608;8.838;2023-08-21T03:00:19;22.40;72.00
32293;DHT22;43233;48.608;8.838;2023-08-21T03:02:44;22.50;72.30
32293;DHT22;43233;48.608;8.838;2023-08-21T03:05:10;22.40;72.10
32293;DHT22;43233;48.608;8.838;2023-08-21T03:07:36;22.50;71.90
32293;DHT22;43233;48.608;8.838;2023-08-21T03:10:02;22.50;71.80
32293;DHT22;43233;48.608;8.838;2023-08-21T03:12:28;22.50;71.70
32293;DHT22;43233;48.608;8.838;2023-08-21T03:14:53;22.50;71.40
32293;DHT22;43233;48.608;8.838;2023-08-21T03:17:19;22.50;71.30
32293;DHT22;43233;48.608;8.838;2023-08-21T03:19:45;22.60;70.90
32293;DHT22;43233;48.608;8.838;2023-08-21T03:22:10;22.60;70.80
32293;DHT22;43233;48.608;8.838;2023-08-21T03:24:36;22.60;70.90
32293;DHT22;43233;48.608;8.838;2023-08-21T03:27:02;22.60;71.20
32293;DHT22;43233;48.608;8.838;2023-08-21T03:29:28;22.50;71.20
32293;DHT22;43233;48.608;8.838;2023-08-21T03:31:53;22.50;71.20
32293;DHT22;43233;48.608;8.838;2023-08-21T03:34:22;22.50;71.10
32293;DHT22;43233;48.608;8.838;2023-08-21T03:36:48;22.50;71.30
32293;DHT22;43233;48.608;8.838;2023-08-21T03:39:13;22.40;71.20
32293;DHT22;43233;48.608;8.838;2023-08-21T03:41:39;22.40;71.40
32293;DHT22;43233;48.608;8.838;2023-08-21T03:44:05;22.30;71.80
32293;DHT22;43233;48.608;8.838;2023-08-21T03:46:30;22.30;71.80
32293;DHT22;43233;48.608;8.838;2023-08-21T03:48:56;22.30;72.10
32293;DHT22;43233;48.608;8.838;2023-08-21T03:51:22;22.20;73.40
32293;DHT22;43233;48.608;8.838;2023-08-21T03:53:49;22.10;73.20
32293;DHT22;43233;48.608;8.838;2023-08-21T03:56:14;22.00;73.70
32293;DHT22;43233;48.608;8.838;2023-08-21T03:58:40;21.90;74.10
32293;DHT22;43233;48.608;8.838;2023-08-21T04:01:06;21.90;74.20
32293;DHT22;43233;48.608;8.838;2023-08-21T04:03:31;21.90;74.30
32293;DHT22;43233;48.608;8.838;2023-08-21T04:05:58;21.90;74.50
32293;DHT22;43233;48.608;8.838;2023-08-21T04:08:24;21.90;74.70
32293;DHT22;43233;48.608;8.838;2023-08-21T04:10:50;21.90;74.70
32293;DHT22;43233;48.608;8.838;2023-08-21T04:13:18;21.90;74.70
32293;DHT22;43233;48.608;8.838;2023-08-21T04:15:48;21.90;74.60
32293;DHT22;43233;48.608;8.838;2023-08-21T04:18:14;21.90;74.60
32293;DHT22;43233;48.608;8.838;2023-08-21T04:20:40;21.90;74.90
32293;DHT22;43233;48.608;8.838;2023-08-21T04:23:05;21.90;74.90
32293;DHT22;43233;48.608;8.838;2023-08-21T04:25:31;21.90;74.70
32293;DHT22;43233;48.608;8.838;2023-08-21T04:27:57;21.90;74.60
32293;DHT22;43233;48.608;8.838;2023-08-21T04:30:22;22.00;74.30
32293;DHT22;43233;48.608;8.838;2023-08-21T04:32:48;22.00;74.00
32293;DHT22;43233;48.608;8.838;2023-08-21T04:35:14;22.00;73.90
32293;DHT22;43233;48.608;8.838;2023-08-21T04:37:46;22.00;73.70
32293;DHT22;43233;48.608;8.838;2023-08-21T04:40:13;22.00;73.60
32293;DHT22;43233;48.608;8.838;2023-08-21T04:42:38;22.00;73.70
32293;DHT22;43233;48.608;8.838;2023-08-21T04:45:05;22.00;73.60
32293;DHT22;43233;48.608;8.838;2023-08-21T04:47:31;22.10;73.70
32293;DHT22;43233;48.608;8.838;2023-08-21T04:49:57;22.10;73.60
32293;DHT22;43233;48.608;8.838;2023-08-21T04:52:23;22.10;73.80
32293;DHT22;43233;48.608;8.838;2023-08-21T04:54:50;22.10;73.70
32293;DHT22;43233;48.608;8.838;2023-08-21T04:57:17;22.10;73.50
32293;DHT22;43233;48.608;8.838;2023-08-21T04:59:45;22.10;73.40
32293;DHT22;43233;48.608;8.838;2023-08-21T05:02:10;22.10;73.20
32293;DHT22;43233;48.608;8.838;2023-08-21T05:04:37;22.10;73.40
32293;DHT22;43233;48.608;8.838;2023-08-21T05:07:03;22.20;73.40
32293;DHT22;43233;48.608;8.838;2023-08-21T05:09:29;22.20;73.40
32293;DHT22;43233;48.608;8.838;2023-08-21T05:11:55;22.20;74.10
32293;DHT22;43233;48.608;8.838;2023-08-21T05:14:22;22.20;73.80
32293;DHT22;43233;48.608;8.838;2023-08-21T05:16:48;22.30;73.60
32293;DHT22;43233;48.608;8.838;2023-08-21T05:19:14;22.30;73.70
32293;DHT22;43233;48.608;8.838;2023-08-21T05:21:40;22.40;73.50
32293;DHT22;43233;48.608;8.838;2023-08-21T05:24:05;22.50;73.50
32293;DHT22;43233;48.608;8.838;2023-08-21T05:26:31;22.50;73.40
32293;DHT22;43233;48.608;8.838;2023-08-21T05:28:57;22.60;73.00
32293;DHT22;43233;48.608;8.838;2023-08-21T05:31:22;22.70;73.10
32293;DHT22;43233;48.608;8.838;2023-08-21T05:33:48;22.70;72.80
32293;DHT22;43233;48.608;8.838;2023-08-21T05:36:14;22.70;72.60
32293;DHT22;43233;48.608;8.838;2023-08-21T05:38:39;22.80;72.20
32293;DHT22;43233;48.608;8.838;2023-08-21T05:41:05;22.90;72.20
32293;DHT22;43233;48.608;8.838;2023-08-21T05:43:30;22.90;72.20
32293;DHT22;43233;48.608;8.838;2023-08-21T05:45:56;22.90;72.10
32293;DHT22;43233;48.608;8.838;2023-08-21T05:48:22;22.90;72.10
32293;DHT22;43233;48.608;8.838;2023-08-21T05:50:51;22.90;71.90
32293;DHT22;43233;48.608;8.838;2023-08-21T05:53:17;22.90;72.20
32293;DHT22;43233;48.608;8.838;2023-08-21T05:55:42;23.00;72.30
32293;DHT22;43233;48.608;8.838;2023-08-21T05:58:08;23.10;72.00
32293;DHT22;43233;48.608;8.838;2023-08-21T06:00:34;23.10;71.40
32293;DHT22;43233;48.608;8.838;2023-08-21T06:03:00;23.10;71.40
32293;DHT22;43233;48.608;8.838;2023-08-21T06:05:26;23.20;71.10
32293;DHT22;43233;48.608;8.838;2023-08-21T06:07:52;23.20;71.30
32293;DHT22;43233;48.608;8.838;2023-08-21T06:10:17;23.20;71.50
32293;DHT22;43233;48.608;8.838;2023-08-21T06:12:43;23.20;71.80
32293;DHT22;43233;48.608;8.838;2023-08-21T06:15:09;23.20;71.80
32293;DHT22;43233;48.608;8.838;2023-08-21T06:17:38;23.30;71.50
32293;DHT22;43233;48.608;8.838;2023-08-21T06:20:05;23.30;71.50
32293;DHT22;43233;48.608;8.838;2023-08-21T06:22:33;23.40;71.50
32293;DHT22;43233;48.608;8.838;2023-08-21T06:24:59;23.40;71.50
32293;DHT22;43233;48.608;8.838;2023-08-21T06:27:24;23.50;71.00
32293;DHT22;43233;48.608;8.838;2023-08-21T06:29:50;23.50;70.80
32293;DHT22;43233;48.608;8.838;2023-08-21T06:32:16;23.60;71.00
32293;DHT22;43233;48.608;8.838;2023-08-21T06:34:41;23.60;70.80
32293;DHT22;43233;48.608;8.838;2023-08-21T06:37:07;23.60;70.80
32293;DHT22;43233;48.608;8.838;2023-08-21T06:39:34;23.70;71.00
32293;DHT22;43233;48.608;8.838;2023-08-21T06:41:59;23.80;71.20
32293;DHT22;43233;48.608;8.838;2023-08-21T06:44:26;23.80;71.30
32293;DHT22;43233;48.608;8.838;2023-08-21T06:46:51;23.80;71.40
32293;DHT22;43233;48.608;8.838;2023-08-21T06:49:17;23.80;71.40
32293;DHT22;43233;48.608;8.838;2023-08-21T06:51:43;23.90;71.20
32293;DHT22;43233;48.608;8.838;2023-08-21T06:54:09;24.00;71.20
32293;DHT22;43233;48.608;8.838;2023-08-21T06:56:35;24.00;70.90
32293;DHT22;43233;48.608;8.838;2023-08-21T06:59:00;24.10;71.30
32293;DHT22;43233;48.608;8.838;2023-08-21T07:01:27;24.10;70.60
32293;DHT22;43233;48.608;8.838;2023-08-21T07:03:53;24.20;70.80
32293;DHT22;43233;48.608;8.838;2023-08-21T07:06:19;24.20;70.80
32293;DHT22;43233;48.608;8.838;2023-08-21T07:08:44;24.30;70.70
32293;DHT22;43233;48.608;8.838;2023-08-21T07:11:10;24.40;70.60
32293;DHT22;43233;48.608;8.838;2023-08-21T07:13:37;24.40;70.10
32293;DHT22;43233;48.608;8.838;2023-08-21T07:16:03;24.50;70.00
32293;DHT22;43233;48.608;8.838;2023-08-21T07:18:32;24.60;69.20
32293;DHT22;43233;48.608;8.838;2023-08-21T07:20:58;24.60;69.20
32293;DHT22;43233;48.608;8.838;2023-08-21T07:23:23;24.70;69.30
32293;DHT22;43233;48.608;8.838;2023-08-21T07:25:49;24.80;69.30
32293;DHT22;43233;48.608;8.838;2023-08-21T07:28:14;24.80;68.80
32293;DHT22;43233;48.608;8.838;2023-08-21T07:30:40;24.80;68.80
32293;DHT22;43233;48.608;8.838;2023-08-21T07:33:06;24.90;69.00
32293;DHT22;43233;48.608;8.838;2023-08-21T07:35:32;24.90;68.40
32293;DHT22;43233;48.608;8.838;2023-08-21T07:37:58;24.90;68.70
32293;DHT22;43233;48.608;8.838;2023-08-21T07:40:24;25.00;68.50
32293;DHT22;43233;48.608;8.838;2023-08-21T07:42:49;25.10;67.80
32293;DHT22;43233;48.608;8.838;2023-08-21T07:45:16;25.20;67.70
32293;DHT22;43233;48.608;8.838;2023-08-21T07:47:41;25.30;67.00
32293;DHT22;43233;48.608;8.838;2023-08-21T07:50:08;25.40;65.60
32293;DHT22;43233;48.608;8.838;2023-08-21T07:52:34;25.50;66.80
32293;DHT22;43233;48.608;8.838;2023-08-21T07:55:00;25.60;66.30
32293;DHT22;43233;48.608;8.838;2023-08-21T07:57:30;25.70;65.50
32293;DHT22;43233;48.608;8.838;2023-08-21T07:59:56;25.80;65.30
32293;DHT22;43233;48.608;8.838;2023-08-21T08:02:22;25.90;62.90
32293;DHT22;43233;48.608;8.838;2023-08-21T08:04:48;26.00;63.30
32293;DHT22;43233;48.608;8.838;2023-08-21T08:07:14;26.00;63.20
32293;DHT22;43233;48.608;8.838;2023-08-21T08:09:39;26.10;61.90
32293;DHT22;43233;48.608;8.838;2023-08-21T08:12:05;26.10;60.90
32293;DHT22;43233;48.608;8.838;2023-08-21T08:14:31;26.20;60.90
32293;DHT22;43233;48.608;8.838;2023-08-21T08:16:57;26.20;60.50
32293;DHT22;43233;48.608;8.838;2023-08-21T08:19:22;26.30;61.00
32293;DHT22;43233;48.608;8.838;2023-08-21T08:21:48;26.40;60.40
32293;DHT22;43233;48.608;8.838;2023-08-21T08:24:14;26.50;59.30
32293;DHT22;43233;48.608;8.838;2023-08-21T08:26:39;26.60;58.00
32293;DHT22;43233;48.608;8.838;2023-08-21T08:29:07;26.60;57.90
32293;DHT22;43233;48.608;8.838;2023-08-21T08:31:32;26.70;57.80
32293;DHT22;43233;48.608;8.838;2023-08-21T08:33:58;26.80;57.90
32293;DHT22;43233;48.608;8.838;2023-08-21T08:36:24;26.80;57.00
32293;DHT22;43233;48.608;8.838;2023-08-21T08:38:49;26.90;56.50
32293;DHT22;43233;48.608;8.838;2023-08-21T08:41:37;27.00;56.90
32293;DHT22;43233;48.608;8.838;2023-08-21T08:44:03;27.10;55.30
32293;DHT22;43233;48.608;8.838;2023-08-21T08:46:30;27.20;55.20
32293;DHT22;43233;48.608;8.838;2023-08-21T08:48:56;27.30;54.60
32293;DHT22;43233;48.608;8.838;2023-08-21T08:51:24;27.40;53.90
32293;DHT22;43233;48.608;8.838;2023-08-21T08:53:50;27.50;54.30
32293;DHT22;43233;48.608;8.838;2023-08-21T08:56:16;27.50;53.80
32293;DHT22;43233;48.608;8.838;2023-08-21T08:58:42;27.70;53.80
32293;DHT22;43233;48.608;8.838;2023-08-21T09:01:09;27.70;51.80
32293;DHT22;43233;48.608;8.838;2023-08-21T09:03:36;27.90;52.30
32293;DHT22;43233;48.608;8.838;2023-08-21T09:06:03;28.00;52.10
32293;DHT22;43233;48.608;8.838;2023-08-21T09:08:29;28.10;52.00
32293;DHT22;43233;48.608;8.838;2023-08-21T09:10:54;28.30;51.00
32293;DHT22;43233;48.608;8.838;2023-08-21T09:13:20;28.40;50.30
32293;DHT22;43233;48.608;8.838;2023-08-21T09:15:53;28.40;49.30
32293;DHT22;43233;48.608;8.838;2023-08-21T09:18:19;28.50;48.30
32293;DHT22;43233;48.608;8.838;2023-08-21T09:20:44;28.60;47.70
32293;DHT22;43233;48.608;8.838;2023-08-21T09:23:17;28.60;46.60
32293;DHT22;43233;48.608;8.838;2023-08-21T09:25:45;28.70;45.30
32293;DHT22;43233;48.608;8.838;2023-08-21T09:28:15;28.90;43.80
32293;DHT22;43233;48.608;8.838;2023-08-21T09:30:48;28.90;43.50
32293;DHT22;43233;48.608;8.838;2023-08-21T09:33:17;28.90;46.00
32293;DHT22;43233;48.608;8.838;2023-08-21T09:35:44;29.00;46.40
32293;DHT22;43233;48.608;8.838;2023-08-21T09:38:10;29.20;45.10
32293;DHT22;43233;48.608;8.838;2023-08-21T09:40:56;29.30;45.60
32293;DHT22;43233;48.608;8.838;2023-08-21T09:43:22;29.50;45.60
32293;DHT22;43233;48.608;8.838;2023-08-21T09:45:50;29.60;43.70
32293;DHT22;43233;48.608;8.838;2023-08-21T09:48:18;29.70;42.90
32293;DHT22;43233;48.608;8.838;2023-08-21T09:50:46;29.80;41.80
32293;DHT22;43233;48.608;8.838;2023-08-21T09:53:12;29.80;41.60
32293;DHT22;43233;48.608;8.838;2023-08-21T09:55:39;29.90;40.40
32293;DHT22;43233;48.608;8.838;2023-08-21T09:58:06;29.90;40.00
32293;DHT22;43233;48.608;8.838;2023-08-21T10:00:34;29.90;39.60
32293;DHT22;43233;48.608;8.838;2023-08-21T10:03:02;29.90;40.30
32293;DHT22;43233;48.608;8.838;2023-08-21T10:05:32;30.00;40.20
32293;DHT22;43233;48.608;8.838;2023-08-21T10:08:01;30.00;41.20
32293;DHT22;43233;48.608;8.838;2023-08-21T10:10:39;30.00;41.10
32293;DHT22;43233;48.608;8.838;2023-08-21T10:13:07;30.20;42.10
32293;DHT22;43233;48.608;8.838;2023-08-21T10:15:33;30.30;41.20
32293;DHT22;43233;48.608;8.838;2023-08-21T10:18:24;30.40;40.70
32293;DHT22;43233;48.608;8.838;2023-08-21T10:20:51;30.60;41.10
32293;DHT22;43233;48.608;8.838;2023-08-21T10:23:28;30.70;39.40
32293;DHT22;43233;48.608;8.838;2023-08-21T10:25:58;30.80;38.40
32293;DHT22;43233;48.608;8.838;2023-08-21T10:28:24;30.90;38.60
32293;DHT22;43233;48.608;8.838;2023-08-21T10:30:49;31.00;38.70
32293;DHT22;43233;48.608;8.838;2023-08-21T10:33:15;31.10;39.50
32293;DHT22;43233;48.608;8.838;2023-08-21T10:35:41;31.20;38.30
32293;DHT22;43233;48.608;8.838;2023-08-21T10:38:19;31.30;38.60
32293;DHT22;43233;48.608;8.838;2023-08-21T10:41:07;31.40;38.60
32293;DHT22;43233;48.608;8.838;2023-08-21T10:43:45;31.60;37.30
32293;DHT22;43233;48.608;8.838;2023-08-21T10:46:12;31.70;37.40
32293;DHT22;43233;48.608;8.838;2023-08-21T10:48:38;31.80;36.80
32293;DHT22;43233;48.608;8.838;2023-08-21T10:51:07;31.80;36.60
32293;DHT22;43233;48.608;8.838;2023-08-21T10:53:34;31.90;36.80
32293;DHT22;43233;48.608;8.838;2023-08-21T10:56:04;31.90;37.20
32293;DHT22;43233;48.608;8.838;2023-08-21T10:58:42;31.90;37.70
32293;DHT22;43233;48.608;8.838;2023-08-21T11:01:09;32.10;37.20
32293;DHT22;43233;48.608;8.838;2023-08-21T11:03:37;32.20;38.10
32293;DHT22;43233;48.608;8.838;2023-08-21T11:06:04;32.30;37.70
32293;DHT22;43233;48.608;8.838;2023-08-21T11:08:32;32.40;37.70
32293;DHT22;43233;48.608;8.838;2023-08-21T11:10:58;32.50;36.00
32293;DHT22;43233;48.608;8.838;2023-08-21T11:13:25;32.50;36.00
32293;DHT22;43233;48.608;8.838;2023-08-21T11:16:02;32.50;35.10
32293;DHT22;43233;48.608;8.838;2023-08-21T11:18:36;32.50;35.50
32293;DHT22;43233;48.608;8.838;2023-08-21T11:21:07;32.50;34.70
32293;DHT22;43233;48.608;8.838;2023-08-21T11:23:35;32.40;35.00
32293;DHT22;43233;48.608;8.838;2023-08-21T11:26:02;32.30;35.50
32293;DHT22;43233;48.608;8.838;2023-08-21T11:28:29;32.30;35.40
32293;DHT22;43233;48.608;8.838;2023-08-21T11:30:58;32.30;34.50
32293;DHT22;43233;48.608;8.838;2023-08-21T11:33:26;32.20;34.20
32293;DHT22;43233;48.608;8.838;2023-08-21T11:35:52;32.20;34.30
32293;DHT22;43233;48.608;8.838;2023-08-21T11:38:23;32.20;34.80
32293;DHT22;43233;48.608;8.838;2023-08-21T11:40:59;32.50;34.80
32293;DHT22;43233;48.608;8.838;2023-08-21T11:43:38;32.60;34.50
32293;DHT22;43233;48.608;8.838;2023-08-21T11:46:05;32.70;34.50
32293;DHT22;43233;48.608;8.838;2023-08-21T11:48:32;32.90;34.10
32293;DHT22;43233;48.608;8.838;2023-08-21T11:50:58;33.00;33.20
32293;DHT22;43233;48.608;8.838;2023-08-21T11:53:40;33.10;33.50
32293;DHT22;43233;48.608;8.838;2023-08-21T11:56:15;33.00;33.50
32293;DHT22;43233;48.608;8.838;2023-08-21T11:58:42;33.00;33.10
32293;DHT22;43233;48.608;8.838;2023-08-21T12:01:10;32.90;32.70
32293;DHT22;43233;48.608;8.838;2023-08-21T12:03:37;33.00;33.60
32293;DHT22;43233;48.608;8.838;2023-08-21T12:06:10;33.00;33.20
32293;DHT22;43233;48.608;8.838;2023-08-21T12:08:37;33.00;33.40
32293;DHT22;43233;48.608;8.838;2023-08-21T12:11:03;33.10;33.70
32293;DHT22;43233;48.608;8.838;2023-08-21T12:13:30;33.20;32.70
32293;DHT22;43233;48.608;8.838;2023-08-21T12:15:56;33.30;31.50
32293;DHT22;43233;48.608;8.838;2023-08-21T12:18:22;33.30;32.30
32293;DHT22;43233;48.608;8.838;2023-08-21T12:20:48;33.20;32.60
32293;DHT22;43233;48.608;8.838;2023-08-21T12:23:13;33.10;33.20
32293;DHT22;43233;48.608;8.838;2023-08-21T12:25:39;33.10;33.30
32293;DHT22;43233;48.608;8.838;2023-08-21T12:28:06;33.00;33.80
32293;DHT22;43233;48.608;8.838;2023-08-21T12:30:31;33.00;33.00
32293;DHT22;43233;48.608;8.838;2023-08-21T12:32:57;33.00;32.60
32293;DHT22;43233;48.608;8.838;2023-08-21T12:35:23;33.00;32.50
32293;DHT22;43233;48.608;8.838;2023-08-21T12:37:48;33.00;32.70
32293;DHT22;43233;48.608;8.838;2023-08-21T12:40:14;33.00;32.40
32293;DHT22;43233;48.608;8.838;2023-08-21T12:42:40;33.00;32.50
32293;DHT22;43233;48.608;8.838;2023-08-21T12:45:06;33.10;33.00
32293;DHT22;43233;48.608;8.838;2023-08-21T12:47:31;33.10;33.10
32293;DHT22;43233;48.608;8.838;2023-08-21T12:49:58;33.20;32.10
32293;DHT22;43233;48.608;8.838;2023-08-21T12:52:23;33.20;31.40
32293;DHT22;43233;48.608;8.838;2023-08-21T12:54:49;33.20;32.40
32293;DHT22;43233;48.608;8.838;2023-08-21T12:57:15;33.20;31.80
32293;DHT22;43233;48.608;8.838;2023-08-21T12:59:42;33.10;32.30
32293;DHT22;43233;48.608;8.838;2023-08-21T13:02:08;33.10;32.30
32293;DHT22;43233;48.608;8.838;2023-08-21T13:04:33;33.00;32.60
32293;DHT22;43233;48.608;8.838;2023-08-21T13:06:59;33.10;31.70
32293;DHT22;43233;48.608;8.838;2023-08-21T13:09:25;33.00;31.20
32293;DHT22;43233;48.608;8.838;2023-08-21T13:11:51;32.80;31.10
32293;DHT22;43233;48.608;8.838;2023-08-21T13:14:17;32.80;32.60
32293;DHT22;43233;48.608;8.838;2023-08-21T13:16:42;33.00;32.70
32293;DHT22;43233;48.608;8.838;2023-08-21T13:19:08;33.20;31.60
32293;DHT22;43233;48.608;8.838;2023-08-21T13:21:34;33.50;31.60
32293;DHT22;43233;48.608;8.838;2023-08-21T13:23:59;33.80;29.80
32293;DHT22;43233;48.608;8.838;2023-08-21T13:26:25;34.00;30.50
32293;DHT22;43233;48.608;8.838;2023-08-21T13:28:53;34.30;29.60
32293;DHT22;43233;48.608;8.838;2023-08-21T13:31:19;34.60;29.40
32293;DHT22;43233;48.608;8.838;2023-08-21T13:33:48;34.70;28.00
32293;DHT22;43233;48.608;8.838;2023-08-21T13:36:15;34.70;27.70
32293;DHT22;43233;48.608;8.838;2023-08-21T13:38:42;34.40;28.30
32293;DHT22;43233;48.608;8.838;2023-08-21T13:41:08;34.10;28.70
32293;DHT22;43233;48.608;8.838;2023-08-21T13:43:35;34.00;29.20
32293;DHT22;43233;48.608;8.838;2023-08-21T13:46:01;34.10;30.00
32293;DHT22;43233;48.608;8.838;2023-08-21T13:48:30;34.30;29.50
32293;DHT22;43233;48.608;8.838;2023-08-21T13:50:56;34.30;29.00
32293;DHT22;43233;48.608;8.838;2023-08-21T13:53:22;34.40;29.50
32293;DHT22;43233;48.608;8.838;2023-08-21T13:55:49;34.60;29.30
32293;DHT22;43233;48.608;8.838;2023-08-21T13:58:15;34.90;29.30
32293;DHT22;43233;48.608;8.838;2023-08-21T14:00:40;35.10;28.60
32293;DHT22;43233;48.608;8.838;2023-08-21T14:03:06;35.10;29.10
32293;DHT22;43233;48.608;8.838;2023-08-21T14:05:32;35.10;28.90
32293;DHT22;43233;48.608;8.838;2023-08-21T14:07:59;35.40;28.90
32293;DHT22;43233;48.608;8.838;2023-08-21T14:10:25;35.60;28.60
32293;DHT22;43233;48.608;8.838;2023-08-21T14:12:51;36.00;28.50
32293;DHT22;43233;48.608;8.838;2023-08-21T14:15:17;36.40;27.60
32293;DHT22;43233;48.608;8.838;2023-08-21T14:17:44;36.70;27.00
32293;DHT22;43233;48.608;8.838;2023-08-21T14:20:10;37.10;27.10
32293;DHT22;43233;48.608;8.838;2023-08-21T14:22:37;37.60;26.40
32293;DHT22;43233;48.608;8.838;2023-08-21T14:25:03;38.00;26.20
32293;DHT22;43233;48.608;8.838;2023-08-21T14:27:32;38.30;25.20
32293;DHT22;43233;48.608;8.838;2023-08-21T14:29:58;38.70;24.40
32293;DHT22;43233;48.608;8.838;2023-08-21T14:32:23;39.00;25.00
32293;DHT22;43233;48.608;8.838;2023-08-21T14:34:49;39.30;23.80
32293;DHT22;43233;48.608;8.838;2023-08-21T14:37:15;39.60;23.40
32293;DHT22;43233;48.608;8.838;2023-08-21T14:39:42;39.80;23.40
32293;DHT22;43233;48.608;8.838;2023-08-21T14:42:11;40.10;22.80
32293;DHT22;43233;48.608;8.838;2023-08-21T14:44:36;40.50;22.30
32293;DHT22;43233;48.608;8.838;2023-08-21T14:47:02;40.60;21.40
32293;DHT22;43233;48.608;8.838;2023-08-21T14:49:28;40.80;21.30
32293;DHT22;43233;48.608;8.838;2023-08-21T14:51:54;41.10;21.40
32293;DHT22;43233;48.608;8.838;2023-08-21T14:54:20;41.10;21.60
32293;DHT22;43233;48.608;8.838;2023-08-21T14:56:45;41.20;20.40
32293;DHT22;43233;48.608;8.838;2023-08-21T14:59:12;41.20;20.30
32293;DHT22;43233;48.608;8.838;2023-08-21T15:01:38;41.10;21.00
32293;DHT22;43233;48.608;8.838;2023-08-21T15:04:05;41.00;19.70
32293;DHT22;43233;48.608;8.838;2023-08-21T15:06:31;40.60;20.50
32293;DHT22;43233;48.608;8.838;2023-08-21T15:08:57;40.40;20.70
32293;DHT22;43233;48.608;8.838;2023-08-21T15:11:22;40.40;21.60
32293;DHT22;43233;48.608;8.838;2023-08-21T15:13:48;40.50;21.20
32293;DHT22;43233;48.608;8.838;2023-08-21T15:16:14;40.50;20.80
32293;DHT22;43233;48.608;8.838;2023-08-21T15:18:39;40.50;20.90
32293;DHT22;43233;48.608;8.838;2023-08-21T15:21:05;40.40;21.00
32293;DHT22;43233;48.608;8.838;2023-08-21T15:23:30;40.30;21.10
32293;DHT22;43233;48.608;8.838;2023-08-21T15:25:56;40.10;21.60
32293;DHT22;43233;48.608;8.838;2023-08-21T15:28:22;39.80;21.10